HHR weather

Public forecast

Using degrees Fahrenheit for public forecast. Weather courtesy of forecast.io.

Current aviation weather report (METAR) for Jack Northrop Field Hawthorne Municipal Airport

Retrieved 2020/08/09 06:53 UTC (33 minutes ago):

KHHR 090653Z AUTO 28004KT 10SM CLR 18/14 A2996 RMK AO2 SLP145 T01780144

Closest aviation forecast (TAF) to Jack Northrop Field Hawthorne Municipal Airport

Closest forecast is Los Angeles International Airport, 3.8 nm (7.1 km) WNW. Retrieved 2020/08/09 06:39 UTC (47 minutes ago):

TAF KLAX 090535Z 0906/1012 27009KT P6SM SKC FM090900 VRB03KT P6SM SKC FM091700 25008KT P6SM SKC FM092200 26012KT P6SM SKC FM100400 26006KT P6SM SKC FM100900 VRB03KT P6SM SKC